createdAt,value
2023-05-06T00:00:25.952Z,97419.25
2023-05-06T00:02:53.520Z,97417.94
2023-05-06T00:05:20.894Z,97414.31
2023-05-06T00:07:48.183Z,97408.34
2023-05-06T00:10:15.927Z,97413.97
2023-05-06T00:12:43.537Z,97414.31
2023-05-06T00:15:11.812Z,97412.75
2023-05-06T00:17:39.326Z,97418.22
2023-05-06T00:20:07.901Z,97419.81
2023-05-06T00:22:35.176Z,97420.16
2023-05-06T00:25:02.878Z,97413.59
2023-05-06T00:27:30.157Z,97406.78
2023-05-06T00:29:58.201Z,97406.41
2023-05-06T00:32:25.547Z,97399.22
2023-05-06T00:34:52.800Z,97396.44
2023-05-06T00:37:20.033Z,97391.47
2023-05-06T00:39:47.304Z,97391.22
2023-05-06T00:42:14.488Z,97397.59
2023-05-06T00:44:41.779Z,97391.44
2023-05-06T00:47:09.419Z,97384.94
2023-05-06T00:49:36.629Z,97386.41
2023-05-06T00:52:04.564Z,97393.16
2023-05-06T00:54:32.024Z,97390.97
2023-05-06T00:56:59.489Z,97391.22
2023-05-06T00:59:27.058Z,97400.94
2023-05-06T01:01:54.564Z,97398.06
2023-05-06T01:04:24.108Z,97394.78
2023-05-06T01:07:19.301Z,97393.13
2023-05-06T01:10:06.701Z,97396.34
2023-05-06T01:12:44.083Z,97392.34
2023-05-06T01:15:44.846Z,97391.03
2023-05-06T01:18:17.812Z,97387.88
2023-05-06T01:20:51.025Z,97387.97
2023-05-06T01:23:19.145Z,97391.72
2023-05-06T01:25:46.465Z,97389.88
2023-05-06T01:28:14.197Z,97396.03
2023-05-06T01:30:58.022Z,97387.91
2023-05-06T01:33:48.192Z,97394.13
2023-05-06T01:37:25.965Z,97389.47
2023-05-06T01:39:57.920Z,97390.00
2023-05-06T01:42:27.554Z,97384.53
2023-05-06T01:44:57.311Z,97387.53
2023-05-06T01:47:25.621Z,97382.00
2023-05-06T01:49:53.148Z,97388.34
2023-05-06T01:52:22.327Z,97383.56
2023-05-06T01:54:50.328Z,97385.44
2023-05-06T01:57:17.609Z,97382.56
2023-05-06T01:59:45.315Z,97387.44
2023-05-06T02:02:12.617Z,97379.53
2023-05-06T02:04:39.848Z,97378.19
2023-05-06T02:07:07.351Z,97373.16
2023-05-06T02:09:34.702Z,97382.66
2023-05-06T02:12:03.557Z,97376.63
2023-05-06T02:14:30.815Z,97381.63
2023-05-06T02:17:05.047Z,97381.63
2023-05-06T02:19:32.561Z,97374.22
2023-05-06T02:21:59.824Z,97371.63
2023-05-06T02:24:27.173Z,97375.91
2023-05-06T02:26:54.558Z,97372.19
2023-05-06T02:29:21.966Z,97369.28
2023-05-06T02:31:49.249Z,97370.59
2023-05-06T02:34:17.373Z,97371.63
2023-05-06T02:36:44.657Z,97380.63
2023-05-06T02:39:12.000Z,97368.19
2023-05-06T02:41:39.573Z,97364.50
2023-05-06T02:44:06.873Z,97367.94
2023-05-06T02:46:34.762Z,97371.63
2023-05-06T02:49:02.293Z,97362.34
2023-05-06T02:51:31.131Z,97365.53
2023-05-06T02:53:58.446Z,97372.97
2023-05-06T02:56:25.988Z,97370.81
2023-05-06T02:58:53.846Z,97364.66
2023-05-06T03:01:21.321Z,97360.44
2023-05-06T03:03:48.611Z,97365.94
2023-05-06T03:06:15.871Z,97366.19
2023-05-06T03:08:43.119Z,97369.56
2023-05-06T03:11:10.331Z,97372.41
2023-05-06T03:13:37.789Z,97366.84
2023-05-06T03:16:05.634Z,97366.81
2023-05-06T03:18:33.035Z,97372.06
2023-05-06T03:21:00.646Z,97368.19
2023-05-06T03:23:28.583Z,97372.38
2023-05-06T03:25:55.888Z,97366.81
2023-05-06T03:28:23.430Z,97367.63
2023-05-06T03:30:50.952Z,97375.84
2023-05-06T03:33:18.368Z,97373.28
2023-05-06T03:35:45.657Z,97376.19
2023-05-06T03:38:12.854Z,97379.09
2023-05-06T03:40:50.697Z,97386.81
2023-05-06T03:43:18.042Z,97387.31
2023-05-06T03:45:48.265Z,97389.41
2023-05-06T03:48:15.671Z,97391.53
2023-05-06T03:50:44.400Z,97403.84
2023-05-06T03:53:13.267Z,97397.72
2023-05-06T03:55:43.019Z,97391.84
2023-05-06T03:58:12.447Z,97385.34
2023-05-06T04:00:41.669Z,97382.56
2023-05-06T04:03:08.968Z,97385.38
2023-05-06T04:05:42.790Z,97385.53
2023-05-06T04:08:12.445Z,97373.94
2023-05-06T04:10:41.135Z,97380.34
2023-05-06T04:13:15.992Z,97373.16
2023-05-06T04:15:44.829Z,97371.13
2023-05-06T04:18:19.362Z,97364.78
2023-05-06T04:20:55.617Z,97368.38
2023-05-06T04:23:23.232Z,97373.94
2023-05-06T04:25:50.800Z,97365.22
2023-05-06T04:28:21.915Z,97375.78
2023-05-06T04:30:51.771Z,97358.19
2023-05-06T04:33:22.390Z,97360.75
2023-05-06T04:35:56.704Z,97369.78
2023-05-06T04:38:30.331Z,97365.38
2023-05-06T04:40:57.793Z,97368.19
2023-05-06T04:43:27.759Z,97370.34
2023-05-06T04:46:01.785Z,97358.94
2023-05-06T04:48:32.772Z,97356.16
2023-05-06T04:51:01.695Z,97356.38
2023-05-06T04:53:30.199Z,97354.38
2023-05-06T04:55:57.762Z,97369.69
2023-05-06T04:58:25.149Z,97366.56
2023-05-06T05:00:52.684Z,97361.84
2023-05-06T05:03:20.138Z,97367.84
2023-05-06T05:05:47.751Z,97363.72
2023-05-06T05:08:18.981Z,97363.63
2023-05-06T05:10:46.384Z,97361.97
2023-05-06T05:13:19.389Z,97357.16
2023-05-06T05:15:46.844Z,97357.75
2023-05-06T05:18:15.710Z,97358.25
2023-05-06T05:20:44.776Z,97354.41
2023-05-06T05:23:14.187Z,97358.69
2023-05-06T05:25:44.465Z,97355.91
2023-05-06T05:28:12.467Z,97347.78
2023-05-06T05:30:40.291Z,97353.22
2023-05-06T05:33:09.263Z,97350.56
2023-05-06T05:35:37.703Z,97339.69
2023-05-06T05:38:05.078Z,97341.25
2023-05-06T05:40:32.512Z,97349.44
2023-05-06T05:42:59.736Z,97343.91
2023-05-06T05:45:33.141Z,97338.72
2023-05-06T05:48:00.746Z,97338.72
2023-05-06T05:50:28.022Z,97340.59
2023-05-06T05:52:57.197Z,97330.81
2023-05-06T05:55:25.628Z,97329.41
2023-05-06T05:57:52.824Z,97320.59
2023-05-06T06:00:21.796Z,97312.00
2023-05-06T06:02:52.833Z,97315.47
2023-05-06T06:05:21.532Z,97314.69
2023-05-06T06:07:48.912Z,97313.25
2023-05-06T06:10:16.723Z,97302.88
2023-05-06T06:12:44.991Z,97311.06
2023-05-06T06:15:15.925Z,97304.94
2023-05-06T06:17:45.407Z,97305.56
2023-05-06T06:20:13.418Z,97300.34
2023-05-06T06:22:41.113Z,97297.81
2023-05-06T06:25:09.397Z,97298.03
2023-05-06T06:27:37.289Z,97301.34
2023-05-06T06:30:07.137Z,97292.41
2023-05-06T06:32:34.525Z,97303.06
2023-05-06T06:35:01.864Z,97299.56
2023-05-06T06:37:29.283Z,97307.41
2023-05-06T06:39:56.530Z,97306.19
2023-05-06T06:42:23.802Z,97297.63
2023-05-06T06:45:08.658Z,97294.03
2023-05-06T06:47:36.198Z,97293.41
2023-05-06T06:50:03.702Z,97284.31
2023-05-06T06:52:30.987Z,97278.25
2023-05-06T06:54:58.361Z,97281.31
2023-05-06T06:57:25.925Z,97281.56
2023-05-06T06:59:53.883Z,97274.09
2023-05-06T07:02:22.329Z,97274.78
2023-05-06T07:04:49.797Z,97275.19
2023-05-06T07:07:17.022Z,97281.03
2023-05-06T07:09:44.563Z,97279.91
2023-05-06T07:12:12.322Z,97279.09
2023-05-06T07:14:39.655Z,97278.13
2023-05-06T07:17:06.945Z,97285.13
2023-05-06T07:19:34.177Z,97281.16
2023-05-06T07:22:03.172Z,97287.94
2023-05-06T07:24:30.426Z,97275.38
2023-05-06T07:26:57.848Z,97288.84
2023-05-06T07:29:25.117Z,97269.97
2023-05-06T07:31:52.395Z,97271.22
2023-05-06T07:34:20.170Z,97268.66
2023-05-06T07:36:47.390Z,97277.03
2023-05-06T07:39:15.030Z,97271.41
2023-05-06T07:41:42.220Z,97272.72
2023-05-06T07:44:09.467Z,97269.53
2023-05-06T07:46:36.940Z,97263.59
2023-05-06T07:49:04.330Z,97264.28
2023-05-06T07:51:31.959Z,97257.91
2023-05-06T07:53:59.202Z,97267.13
2023-05-06T07:56:26.434Z,97263.75
2023-05-06T07:58:54.121Z,97261.31
2023-05-06T08:01:21.380Z,97263.91
2023-05-06T08:03:49.127Z,97260.44
2023-05-06T08:06:16.726Z,97263.25
2023-05-06T08:08:43.950Z,97260.34
2023-05-06T08:11:11.369Z,97267.16
2023-05-06T08:13:38.649Z,97261.53
2023-05-06T08:16:07.126Z,97248.88
2023-05-06T08:18:34.502Z,97254.84
2023-05-06T08:21:01.868Z,97257.47
2023-05-06T08:23:29.080Z,97266.09
2023-05-06T08:25:56.353Z,97256.91
2023-05-06T08:28:24.643Z,97257.66
2023-05-06T08:30:52.647Z,97262.06
2023-05-06T08:33:20.146Z,97261.28
2023-05-06T08:35:47.923Z,97251.34
2023-05-06T08:38:15.176Z,97258.13
2023-05-06T08:40:44.591Z,97269.25
2023-05-06T08:43:17.478Z,97275.75
2023-05-06T08:45:44.883Z,97273.03
2023-05-06T08:48:12.495Z,97276.13
2023-05-06T08:50:43.468Z,97273.16
2023-05-06T08:53:16.055Z,97272.72
2023-05-06T08:55:44.380Z,97272.84
2023-05-06T08:58:15.969Z,97276.94
2023-05-06T09:00:44.426Z,97271.00
2023-05-06T09:03:11.770Z,97271.94
2023-05-06T09:05:39.235Z,97264.06
2023-05-06T09:08:06.553Z,97273.97
2023-05-06T09:10:44.905Z,97280.75
2023-05-06T09:13:19.094Z,97284.19
2023-05-06T09:15:48.903Z,97285.16
2023-05-06T09:18:16.900Z,97287.69
2023-05-06T09:20:49.420Z,97281.53
2023-05-06T09:23:18.472Z,97276.97
2023-05-06T09:25:47.828Z,97270.34
2023-05-06T09:28:15.602Z,97273.50
2023-05-06T09:30:46.345Z,97276.81
2023-05-06T09:33:14.188Z,97286.50
2023-05-06T09:35:43.899Z,97287.44
2023-05-06T09:38:11.782Z,97299.53
2023-05-06T09:40:39.609Z,97284.94
2023-05-06T09:43:07.882Z,97284.16
2023-05-06T09:45:36.415Z,97281.00
2023-05-06T09:48:04.353Z,97288.25
2023-05-06T09:50:33.571Z,97279.69
2023-05-06T09:53:03.763Z,97281.31
2023-05-06T09:55:31.332Z,97288.06
2023-05-06T09:58:00.586Z,97288.06
2023-05-06T10:00:30.001Z,97276.75
2023-05-06T10:02:59.089Z,97272.34
2023-05-06T10:05:29.097Z,97267.09
2023-05-06T10:07:58.351Z,97265.84
2023-05-06T10:10:28.538Z,97275.47
2023-05-06T10:12:56.603Z,97277.06
2023-05-06T10:15:26.476Z,97278.53
2023-05-06T10:17:55.385Z,97276.78
2023-05-06T10:20:26.618Z,97269.53
2023-05-06T10:23:15.133Z,97270.59
2023-05-06T10:25:44.980Z,97263.91
2023-05-06T10:28:17.101Z,97272.56
2023-05-06T10:30:58.348Z,97259.09
2023-05-06T10:33:27.592Z,97262.50
2023-05-06T10:36:18.396Z,97256.34
2023-05-06T10:38:57.205Z,97249.13
2023-05-06T10:41:28.101Z,97251.16
2023-05-06T10:43:57.180Z,97240.66
2023-05-06T10:46:26.986Z,97243.50
2023-05-06T10:49:06.790Z,97247.31
2023-05-06T10:51:38.786Z,97253.31
2023-05-06T10:54:08.310Z,97259.16
2023-05-06T10:57:09.173Z,97250.84
2023-05-06T10:59:37.187Z,97251.25
2023-05-06T11:02:07.951Z,97253.09
2023-05-06T11:04:35.807Z,97260.00
2023-05-06T11:07:15.546Z,97260.47
2023-05-06T11:10:08.272Z,97256.41
2023-05-06T11:12:49.903Z,97250.56
2023-05-06T11:15:39.515Z,97266.34
2023-05-06T11:18:37.550Z,97272.00
2023-05-06T11:21:08.259Z,97279.66
2023-05-06T11:23:52.294Z,97273.31
2023-05-06T11:26:21.437Z,97280.84
2023-05-06T11:28:51.622Z,97275.03
2023-05-06T11:31:22.343Z,97281.84
2023-05-06T11:33:53.252Z,97292.47
2023-05-06T11:36:22.021Z,97289.91
2023-05-06T11:38:52.551Z,97286.47
2023-05-06T11:41:22.172Z,97292.06
2023-05-06T11:43:51.617Z,97291.97
2023-05-06T11:46:20.927Z,97295.00
2023-05-06T11:48:48.871Z,97299.22
2023-05-06T11:51:21.599Z,97306.28
2023-05-06T11:53:49.020Z,97313.91
2023-05-06T11:56:16.361Z,97308.00
2023-05-06T11:58:44.249Z,97301.50
2023-05-06T12:01:11.444Z,97303.06
2023-05-06T12:03:39.186Z,97311.22
2023-05-06T12:06:06.760Z,97301.78
2023-05-06T12:08:37.394Z,97314.59
2023-05-06T12:11:09.224Z,97323.59
2023-05-06T12:13:37.971Z,97318.31
2023-05-06T12:16:07.862Z,97327.28
2023-05-06T12:18:36.037Z,97327.19
2023-05-06T12:21:04.358Z,97322.75
2023-05-06T12:23:32.058Z,97324.88
2023-05-06T12:26:05.465Z,97318.38
2023-05-06T12:28:36.045Z,97322.47
2023-05-06T12:31:24.349Z,97320.56
2023-05-06T12:33:52.405Z,97323.19
2023-05-06T12:36:20.605Z,97320.97
2023-05-06T12:38:58.702Z,97328.47
2023-05-06T12:41:46.565Z,97318.91
2023-05-06T12:44:40.240Z,97319.34
2023-05-06T12:47:29.255Z,97318.59
2023-05-06T12:49:59.322Z,97308.31
2023-05-06T12:52:30.175Z,97310.09
2023-05-06T12:55:01.045Z,97312.88
2023-05-06T12:57:28.417Z,97319.09
2023-05-06T12:59:56.509Z,97325.66
2023-05-06T13:02:24.242Z,97313.25
2023-05-06T13:04:51.901Z,97322.53
2023-05-06T13:07:19.384Z,97327.84
2023-05-06T13:09:46.691Z,97323.66
2023-05-06T13:12:14.010Z,97329.66
2023-05-06T13:14:41.269Z,97328.16
2023-05-06T13:17:09.066Z,97318.19
2023-05-06T13:19:36.630Z,97319.44
2023-05-06T13:22:03.951Z,97310.47
2023-05-06T13:24:32.420Z,97320.38
2023-05-06T13:27:01.444Z,97320.31
2023-05-06T13:29:29.902Z,97316.34
2023-05-06T13:31:57.763Z,97306.88
2023-05-06T13:34:26.073Z,97316.88
2023-05-06T13:36:54.870Z,97307.50
2023-05-06T13:39:22.864Z,97307.88
2023-05-06T13:41:50.708Z,97308.16
2023-05-06T13:44:21.869Z,97301.84
2023-05-06T13:46:49.519Z,97294.22
2023-05-06T13:49:18.156Z,97297.56
2023-05-06T13:51:45.711Z,97289.16
2023-05-06T13:54:12.989Z,97290.72
2023-05-06T13:56:40.304Z,97289.44
2023-05-06T13:59:08.290Z,97284.50
2023-05-06T14:01:36.398Z,97293.63
2023-05-06T14:04:03.890Z,97291.56
2023-05-06T14:06:31.592Z,97289.59
2023-05-06T14:08:59.045Z,97291.97
2023-05-06T14:11:26.418Z,97289.22
2023-05-06T14:13:57.219Z,97293.84
2023-05-06T14:16:24.765Z,97291.06
2023-05-06T14:18:52.033Z,97292.25
2023-05-06T14:21:19.310Z,97280.09
2023-05-06T14:23:46.639Z,97275.09
2023-05-06T14:26:14.314Z,97284.53
2023-05-06T14:28:41.741Z,97278.47
2023-05-06T14:31:09.099Z,97283.59
2023-05-06T14:33:39.076Z,97286.56
2023-05-06T14:36:07.116Z,97281.47
2023-05-06T14:38:34.571Z,97283.91
2023-05-06T14:41:02.153Z,97273.16
2023-05-06T14:43:29.464Z,97270.16
2023-05-06T14:45:56.843Z,97272.38
2023-05-06T14:48:25.469Z,97276.47
2023-05-06T14:50:53.204Z,97279.00
2023-05-06T14:53:20.499Z,97275.41
2023-05-06T14:55:49.058Z,97275.72
2023-05-06T14:58:16.378Z,97279.53
2023-05-06T15:00:44.953Z,97279.03
2023-05-06T15:03:12.300Z,97290.22
2023-05-06T15:05:39.802Z,97290.56
2023-05-06T15:08:07.406Z,97291.41
2023-05-06T15:10:34.762Z,97292.19
2023-05-06T15:13:02.294Z,97290.13
2023-05-06T15:15:29.648Z,97290.69
2023-05-06T15:17:56.939Z,97290.88
2023-05-06T15:20:24.741Z,97286.03
2023-05-06T15:22:52.054Z,97295.88
2023-05-06T15:25:30.921Z,97297.47
2023-05-06T15:28:02.119Z,97285.63
2023-05-06T15:30:29.546Z,97281.72
2023-05-06T15:32:57.056Z,97278.81
2023-05-06T15:35:24.386Z,97282.78
2023-05-06T15:37:58.776Z,97295.72
2023-05-06T15:40:27.111Z,97295.88
2023-05-06T15:42:54.560Z,97296.06
2023-05-06T15:45:22.704Z,97293.66
2023-05-06T15:47:49.993Z,97295.81
2023-05-06T15:50:31.811Z,97295.06
2023-05-06T15:53:01.612Z,97286.53
2023-05-06T15:55:29.298Z,97297.06
2023-05-06T15:57:59.137Z,97298.72
2023-05-06T16:00:28.114Z,97305.31
2023-05-06T16:02:55.832Z,97302.72
2023-05-06T16:05:23.201Z,97303.94
2023-05-06T16:07:50.455Z,97305.91
2023-05-06T16:10:17.899Z,97307.88
2023-05-06T16:12:45.332Z,97302.19
2023-05-06T16:15:12.648Z,97306.69
2023-05-06T16:17:40.781Z,97309.88
2023-05-06T16:20:10.581Z,97315.38
2023-05-06T16:22:41.407Z,97303.88
2023-05-06T16:25:09.221Z,97306.88
2023-05-06T16:27:36.648Z,97306.00
2023-05-06T16:30:04.448Z,97309.13
2023-05-06T16:32:31.677Z,97308.88
2023-05-06T16:34:59.516Z,97315.50
2023-05-06T16:37:26.776Z,97323.53
2023-05-06T16:39:54.057Z,97320.88
2023-05-06T16:42:21.518Z,97318.03
2023-05-06T16:44:48.788Z,97325.44
2023-05-06T16:47:23.536Z,97325.88
2023-05-06T16:49:51.146Z,97322.31
2023-05-06T16:52:19.315Z,97317.91
2023-05-06T16:54:46.656Z,97327.38
2023-05-06T16:57:14.056Z,97328.00
2023-05-06T16:59:41.329Z,97330.38
2023-05-06T17:02:08.642Z,97339.50
2023-05-06T17:04:36.790Z,97328.47
2023-05-06T17:07:04.810Z,97328.66
2023-05-06T17:09:32.249Z,97332.44
2023-05-06T17:11:59.829Z,97333.84
2023-05-06T17:14:28.077Z,97327.91
2023-05-06T17:16:56.339Z,97325.53
2023-05-06T17:19:23.897Z,97327.72
2023-05-06T17:21:51.129Z,97323.00
2023-05-06T17:24:18.407Z,97328.91
2023-05-06T17:26:45.959Z,97338.91
2023-05-06T17:29:13.424Z,97342.47
2023-05-06T17:31:40.687Z,97349.13
2023-05-06T17:34:07.990Z,97360.22
2023-05-06T17:36:35.414Z,97354.56
2023-05-06T17:39:07.829Z,97355.81
2023-05-06T17:41:35.428Z,97361.78
2023-05-06T17:44:03.021Z,97365.91
2023-05-06T17:46:31.997Z,97374.03
2023-05-06T17:48:59.503Z,97370.00
2023-05-06T17:51:26.989Z,97383.53
2023-05-06T17:53:54.269Z,97383.72
2023-05-06T17:56:21.700Z,97392.81
2023-05-06T17:58:48.906Z,97396.91
2023-05-06T18:01:16.149Z,97407.97
2023-05-06T18:03:44.414Z,97403.63
2023-05-06T18:06:12.657Z,97411.22
2023-05-06T18:08:39.999Z,97404.44
2023-05-06T18:11:07.238Z,97411.94
2023-05-06T18:13:36.702Z,97415.75
2023-05-06T18:16:05.060Z,97418.25
2023-05-06T18:18:32.532Z,97423.88
2023-05-06T18:20:59.872Z,97431.78
2023-05-06T18:23:27.083Z,97428.00
2023-05-06T18:25:54.342Z,97430.09
2023-05-06T18:28:21.655Z,97428.53
2023-05-06T18:30:49.027Z,97432.47
2023-05-06T18:33:16.465Z,97432.47
2023-05-06T18:35:43.857Z,97438.97
2023-05-06T18:38:11.761Z,97438.47
2023-05-06T18:40:40.474Z,97444.50
2023-05-06T18:43:08.477Z,97442.53
2023-05-06T18:45:36.128Z,97446.47
2023-05-06T18:48:04.409Z,97452.56
2023-05-06T18:50:31.927Z,97453.06
2023-05-06T18:52:59.279Z,97454.44
2023-05-06T18:55:26.767Z,97455.06
2023-05-06T18:57:54.150Z,97463.69
2023-05-06T19:00:22.586Z,97460.72
2023-05-06T19:02:49.900Z,97465.38
2023-05-06T19:05:17.715Z,97472.50
2023-05-06T19:07:44.901Z,97469.81
2023-05-06T19:10:14.105Z,97475.66
2023-05-06T19:12:41.799Z,97474.09
2023-05-06T19:15:12.345Z,97475.75
2023-05-06T19:17:40.315Z,97476.13
2023-05-06T19:20:09.023Z,97476.59
2023-05-06T19:22:36.508Z,97482.69
2023-05-06T19:25:04.205Z,97485.56
2023-05-06T19:27:31.394Z,97484.56
2023-05-06T19:29:58.845Z,97480.13
2023-05-06T19:32:26.329Z,97487.84
2023-05-06T19:34:53.676Z,97486.00
2023-05-06T19:37:20.921Z,97485.75
2023-05-06T19:39:49.610Z,97496.50
2023-05-06T19:42:16.856Z,97492.47
2023-05-06T19:44:44.272Z,97493.31
2023-05-06T19:47:12.763Z,97497.44
2023-05-06T19:49:40.290Z,97498.75
2023-05-06T19:52:07.682Z,97499.34
2023-05-06T19:54:35.048Z,97498.50
2023-05-06T19:57:02.564Z,97498.84
2023-05-06T19:59:29.835Z,97492.00
2023-05-06T20:02:00.754Z,97494.56
2023-05-06T20:04:28.718Z,97502.47
2023-05-06T20:06:55.968Z,97500.09
2023-05-06T20:09:23.284Z,97505.16
2023-05-06T20:11:50.657Z,97504.31
2023-05-06T20:14:17.895Z,97506.34
2023-05-06T20:16:45.334Z,97499.53
2023-05-06T20:19:13.048Z,97511.44
2023-05-06T20:21:40.434Z,97513.53
2023-05-06T20:24:07.878Z,97507.41
2023-05-06T20:26:35.214Z,97508.88
2023-05-06T20:29:02.380Z,97505.22
2023-05-06T20:31:29.715Z,97509.78
2023-05-06T20:33:57.068Z,97512.66
2023-05-06T20:36:24.401Z,97507.78
2023-05-06T20:38:52.157Z,97507.41
2023-05-06T20:41:19.495Z,97508.50
2023-05-06T20:43:47.160Z,97505.91
2023-05-06T20:46:14.524Z,97515.94
2023-05-06T20:48:42.167Z,97517.69
2023-05-06T20:51:09.385Z,97511.44
2023-05-06T20:53:37.322Z,97514.59
2023-05-06T20:56:07.146Z,97501.53
2023-05-06T20:58:34.504Z,97510.88
2023-05-06T21:01:03.188Z,97508.22
2023-05-06T21:03:31.125Z,97513.66
2023-05-06T21:05:58.400Z,97518.78
2023-05-06T21:08:25.961Z,97512.72
2023-05-06T21:10:53.152Z,97515.72
2023-05-06T21:13:20.869Z,97512.59
2023-05-06T21:15:48.208Z,97520.69
2023-05-06T21:18:17.089Z,97510.25
2023-05-06T21:20:44.503Z,97513.81
2023-05-06T21:23:11.914Z,97510.13
2023-05-06T21:25:39.208Z,97505.78
2023-05-06T21:28:06.720Z,97514.59
2023-05-06T21:30:36.277Z,97513.81
2023-05-06T21:33:06.489Z,97514.38
2023-05-06T21:35:34.614Z,97513.81
2023-05-06T21:38:01.942Z,97514.94
2023-05-06T21:40:29.355Z,97512.38
2023-05-06T21:42:57.070Z,97513.03
2023-05-06T21:45:24.367Z,97518.09
2023-05-06T21:47:51.726Z,97505.22
2023-05-06T21:50:19.060Z,97520.34
2023-05-06T21:52:46.268Z,97525.88
2023-05-06T21:55:13.729Z,97520.25
2023-05-06T21:57:41.143Z,97518.03
2023-05-06T22:00:12.101Z,97517.16
2023-05-06T22:02:40.786Z,97518.06
2023-05-06T22:05:09.342Z,97518.50
2023-05-06T22:07:36.819Z,97520.47
2023-05-06T22:10:06.219Z,97528.69
2023-05-06T22:12:35.322Z,97519.22
2023-05-06T22:15:03.032Z,97519.88
2023-05-06T22:17:32.799Z,97522.44
2023-05-06T22:20:02.823Z,97522.28
2023-05-06T22:22:30.716Z,97524.19
2023-05-06T22:25:01.077Z,97518.44
2023-05-06T22:27:28.361Z,97524.59
2023-05-06T22:29:55.578Z,97522.59
2023-05-06T22:32:22.911Z,97529.00
2023-05-06T22:34:50.258Z,97527.38
2023-05-06T22:37:17.608Z,97534.22
2023-05-06T22:39:44.948Z,97528.06
2023-05-06T22:42:12.255Z,97522.16
2023-05-06T22:44:39.486Z,97526.97
2023-05-06T22:47:06.894Z,97526.69
2023-05-06T22:49:34.134Z,97527.41
2023-05-06T22:52:01.386Z,97531.78
2023-05-06T22:54:28.663Z,97526.84
2023-05-06T22:56:56.043Z,97528.97
2023-05-06T22:59:23.322Z,97534.56
2023-05-06T23:01:50.553Z,97529.53
2023-05-06T23:04:17.848Z,97535.88
2023-05-06T23:06:45.045Z,97528.91
2023-05-06T23:09:13.551Z,97530.34
2023-05-06T23:11:40.988Z,97534.28
2023-05-06T23:14:08.282Z,97534.56
2023-05-06T23:16:35.608Z,97529.72
2023-05-06T23:19:02.875Z,97532.50
2023-05-06T23:21:30.149Z,97529.59
2023-05-06T23:23:57.354Z,97537.78
2023-05-06T23:26:24.742Z,97532.91
2023-05-06T23:28:52.346Z,97542.97
2023-05-06T23:31:19.662Z,97541.09
2023-05-06T23:33:46.925Z,97536.56
2023-05-06T23:36:14.180Z,97537.13
2023-05-06T23:38:41.323Z,97541.91
2023-05-06T23:41:08.594Z,97542.31
2023-05-06T23:43:35.830Z,97536.47
2023-05-06T23:46:03.055Z,97534.41
2023-05-06T23:48:30.471Z,97533.63
2023-05-06T23:50:57.775Z,97526.03
2023-05-06T23:53:25.018Z,97523.25
2023-05-06T23:55:52.230Z,97520.47
2023-05-06T23:58:19.456Z,97526.72
